sensor_id;sensor_type;location;lat;lon;timestamp;temperature;humidity
10788;DHT22;5446;50.826;4.380;2023-09-19T00:00:46;15.50;99.90
10788;DHT22;5446;50.826;4.380;2023-09-19T00:03:13;15.50;99.90
10788;DHT22;5446;50.826;4.380;2023-09-19T00:05:39;15.50;99.90
10788;DHT22;5446;50.826;4.380;2023-09-19T00:08:05;15.50;99.90
10788;DHT22;5446;50.826;4.380;2023-09-19T00:10:32;15.50;99.90
10788;DHT22;5446;50.826;4.380;2023-09-19T00:13:01;15.50;99.90
10788;DHT22;5446;50.826;4.380;2023-09-19T00:15:35;15.50;99.90
10788;DHT22;5446;50.826;4.380;2023-09-19T00:18:07;15.50;99.90
10788;DHT22;5446;50.826;4.380;2023-09-19T00:20:40;15.40;99.90
10788;DHT22;5446;50.826;4.380;2023-09-19T00:23:07;15.40;99.90
10788;DHT22;5446;50.826;4.380;2023-09-19T00:25:36;15.40;99.90
10788;DHT22;5446;50.826;4.380;2023-09-19T00:28:06;15.40;99.90
10788;DHT22;5446;50.826;4.380;2023-09-19T00:30:33;15.40;99.90
10788;DHT22;5446;50.826;4.380;2023-09-19T00:32:59;15.40;99.90
10788;DHT22;5446;50.826;4.380;2023-09-19T00:35:26;15.40;99.90
10788;DHT22;5446;50.826;4.380;2023-09-19T00:37:53;15.40;99.90
10788;DHT22;5446;50.826;4.380;2023-09-19T00:40:19;15.30;99.90
10788;DHT22;5446;50.826;4.380;2023-09-19T00:42:47;15.30;99.90
10788;DHT22;5446;50.826;4.380;2023-09-19T00:45:15;15.30;99.90
10788;DHT22;5446;50.826;4.380;2023-09-19T00:47:46;15.30;99.90
10788;DHT22;5446;50.826;4.380;2023-09-19T00:50:16;15.30;99.90
10788;DHT22;5446;50.826;4.380;2023-09-19T00:52:43;15.30;99.90
10788;DHT22;5446;50.826;4.380;2023-09-19T00:55:10;15.30;99.90
10788;DHT22;5446;50.826;4.380;2023-09-19T00:57:38;15.30;99.90
10788;DHT22;5446;50.826;4.380;2023-09-19T01:00:05;15.30;99.90
10788;DHT22;5446;50.826;4.380;2023-09-19T01:02:33;15.30;99.90
10788;DHT22;5446;50.826;4.380;2023-09-19T01:04:59;15.30;99.90
10788;DHT22;5446;50.826;4.380;2023-09-19T01:07:27;15.30;99.90
10788;DHT22;5446;50.826;4.380;2023-09-19T01:09:58;15.30;99.90
10788;DHT22;5446;50.826;4.380;2023-09-19T01:12:36;15.30;99.90
10788;DHT22;5446;50.826;4.380;2023-09-19T01:23:20;15.20;99.90
10788;DHT22;5446;50.826;4.380;2023-09-19T01:31:24;15.10;99.90
10788;DHT22;5446;50.826;4.380;2023-09-19T01:33:59;15.10;99.90
10788;DHT22;5446;50.826;4.380;2023-09-19T01:36:30;15.10;99.90
10788;DHT22;5446;50.826;4.380;2023-09-19T01:38:59;15.10;99.90
10788;DHT22;5446;50.826;4.380;2023-09-19T01:41:56;15.10;99.90
10788;DHT22;5446;50.826;4.380;2023-09-19T01:44:44;15.10;99.90
10788;DHT22;5446;50.826;4.380;2023-09-19T01:47:35;15.10;99.90
10788;DHT22;5446;50.826;4.380;2023-09-19T01:50:29;15.10;99.90
10788;DHT22;5446;50.826;4.380;2023-09-19T01:53:13;15.10;99.90
10788;DHT22;5446;50.826;4.380;2023-09-19T01:55:44;15.10;99.90
10788;DHT22;5446;50.826;4.380;2023-09-19T01:58:39;15.10;99.90
10788;DHT22;5446;50.826;4.380;2023-09-19T02:01:08;15.10;99.90
10788;DHT22;5446;50.826;4.380;2023-09-19T02:03:36;15.10;99.90
10788;DHT22;5446;50.826;4.380;2023-09-19T02:06:04;15.00;99.90
10788;DHT22;5446;50.826;4.380;2023-09-19T02:08:31;15.10;99.90
10788;DHT22;5446;50.826;4.380;2023-09-19T02:10:59;15.00;99.90
10788;DHT22;5446;50.826;4.380;2023-09-19T02:13:25;15.00;99.90
10788;DHT22;5446;50.826;4.380;2023-09-19T02:15:52;15.00;99.90
10788;DHT22;5446;50.826;4.380;2023-09-19T02:18:18;15.10;99.90
10788;DHT22;5446;50.826;4.380;2023-09-19T02:20:43;15.10;99.90
10788;DHT22;5446;50.826;4.380;2023-09-19T02:23:10;15.10;99.90
10788;DHT22;5446;50.826;4.380;2023-09-19T02:25:36;15.10;99.90
10788;DHT22;5446;50.826;4.380;2023-09-19T02:28:03;15.10;99.90
10788;DHT22;5446;50.826;4.380;2023-09-19T02:30:31;15.10;99.90
10788;DHT22;5446;50.826;4.380;2023-09-19T02:32:57;15.20;99.90
10788;DHT22;5446;50.826;4.380;2023-09-19T02:35:22;15.20;99.90
10788;DHT22;5446;50.826;4.380;2023-09-19T02:37:49;15.10;99.90
10788;DHT22;5446;50.826;4.380;2023-09-19T02:40:15;15.20;99.90
10788;DHT22;5446;50.826;4.380;2023-09-19T02:42:53;15.20;99.90
10788;DHT22;5446;50.826;4.380;2023-09-19T02:45:19;15.20;99.90
10788;DHT22;5446;50.826;4.380;2023-09-19T02:47:46;15.20;99.90
10788;DHT22;5446;50.826;4.380;2023-09-19T02:50:13;15.30;99.90
10788;DHT22;5446;50.826;4.380;2023-09-19T02:52:45;15.30;99.90
10788;DHT22;5446;50.826;4.380;2023-09-19T02:55:13;15.30;99.90
10788;DHT22;5446;50.826;4.380;2023-09-19T02:57:58;15.30;99.90
10788;DHT22;5446;50.826;4.380;2023-09-19T03:00:24;15.30;99.90
10788;DHT22;5446;50.826;4.380;2023-09-19T03:02:52;15.30;99.90
10788;DHT22;5446;50.826;4.380;2023-09-19T03:05:18;15.20;99.90
10788;DHT22;5446;50.826;4.380;2023-09-19T03:07:44;15.20;99.90
10788;DHT22;5446;50.826;4.380;2023-09-19T03:10:16;15.20;99.90
10788;DHT22;5446;50.826;4.380;2023-09-19T03:12:42;15.20;99.90
10788;DHT22;5446;50.826;4.380;2023-09-19T03:15:08;15.20;99.90
10788;DHT22;5446;50.826;4.380;2023-09-19T03:17:34;15.20;99.90
10788;DHT22;5446;50.826;4.380;2023-09-19T03:20:01;15.10;99.90
10788;DHT22;5446;50.826;4.380;2023-09-19T03:22:28;15.20;99.90
10788;DHT22;5446;50.826;4.380;2023-09-19T03:24:53;15.10;99.90
10788;DHT22;5446;50.826;4.380;2023-09-19T03:27:19;15.10;99.90
10788;DHT22;5446;50.826;4.380;2023-09-19T03:29:46;15.10;99.90
10788;DHT22;5446;50.826;4.380;2023-09-19T03:32:12;15.10;99.90
10788;DHT22;5446;50.826;4.380;2023-09-19T03:34:39;15.00;99.90
10788;DHT22;5446;50.826;4.380;2023-09-19T03:37:09;15.00;99.90
10788;DHT22;5446;50.826;4.380;2023-09-19T03:39:35;14.90;99.90
10788;DHT22;5446;50.826;4.380;2023-09-19T03:42:02;14.90;99.90
10788;DHT22;5446;50.826;4.380;2023-09-19T03:44:29;14.90;99.90
10788;DHT22;5446;50.826;4.380;2023-09-19T03:46:56;14.80;99.90
10788;DHT22;5446;50.826;4.380;2023-09-19T03:49:22;14.80;99.90
10788;DHT22;5446;50.826;4.380;2023-09-19T03:51:48;14.80;99.90
10788;DHT22;5446;50.826;4.380;2023-09-19T03:54:14;14.70;99.90
10788;DHT22;5446;50.826;4.380;2023-09-19T03:56:40;14.70;99.90
10788;DHT22;5446;50.826;4.380;2023-09-19T03:59:05;14.60;99.90
10788;DHT22;5446;50.826;4.380;2023-09-19T04:01:31;14.60;99.90
10788;DHT22;5446;50.826;4.380;2023-09-19T04:03:59;14.60;99.90
10788;DHT22;5446;50.826;4.380;2023-09-19T04:06:36;14.60;99.90
10788;DHT22;5446;50.826;4.380;2023-09-19T04:09:03;14.60;99.90
10788;DHT22;5446;50.826;4.380;2023-09-19T04:11:29;14.60;99.90
10788;DHT22;5446;50.826;4.380;2023-09-19T04:13:56;14.60;99.90
10788;DHT22;5446;50.826;4.380;2023-09-19T04:16:22;14.60;99.90
10788;DHT22;5446;50.826;4.380;2023-09-19T04:18:48;14.60;99.90
10788;DHT22;5446;50.826;4.380;2023-09-19T04:21:13;14.60;99.90
10788;DHT22;5446;50.826;4.380;2023-09-19T04:23:39;14.60;99.90
10788;DHT22;5446;50.826;4.380;2023-09-19T04:26:05;14.60;99.90
10788;DHT22;5446;50.826;4.380;2023-09-19T04:28:31;14.60;99.90
10788;DHT22;5446;50.826;4.380;2023-09-19T04:31:00;14.60;99.90
10788;DHT22;5446;50.826;4.380;2023-09-19T04:33:26;14.60;99.90
10788;DHT22;5446;50.826;4.380;2023-09-19T04:35:56;14.60;99.90
10788;DHT22;5446;50.826;4.380;2023-09-19T04:38:22;14.60;99.90
10788;DHT22;5446;50.826;4.380;2023-09-19T04:40:48;14.60;99.90
10788;DHT22;5446;50.826;4.380;2023-09-19T04:43:14;14.60;99.90
10788;DHT22;5446;50.826;4.380;2023-09-19T04:45:41;14.60;99.90
10788;DHT22;5446;50.826;4.380;2023-09-19T04:48:07;14.50;99.90
10788;DHT22;5446;50.826;4.380;2023-09-19T04:50:34;14.60;99.90
10788;DHT22;5446;50.826;4.380;2023-09-19T04:53:00;14.60;99.90
10788;DHT22;5446;50.826;4.380;2023-09-19T04:55:26;14.50;99.90
10788;DHT22;5446;50.826;4.380;2023-09-19T04:57:52;14.50;99.90
10788;DHT22;5446;50.826;4.380;2023-09-19T05:00:23;14.50;99.90
10788;DHT22;5446;50.826;4.380;2023-09-19T05:02:55;14.50;99.90
10788;DHT22;5446;50.826;4.380;2023-09-19T05:05:24;14.50;99.90
10788;DHT22;5446;50.826;4.380;2023-09-19T05:07:52;14.40;99.90
10788;DHT22;5446;50.826;4.380;2023-09-19T05:10:21;14.40;99.90
10788;DHT22;5446;50.826;4.380;2023-09-19T05:12:47;14.40;99.90
10788;DHT22;5446;50.826;4.380;2023-09-19T05:15:17;14.40;99.90
10788;DHT22;5446;50.826;4.380;2023-09-19T05:17:50;14.40;99.90
10788;DHT22;5446;50.826;4.380;2023-09-19T05:20:17;14.40;99.90
10788;DHT22;5446;50.826;4.380;2023-09-19T05:23:06;14.40;99.90
10788;DHT22;5446;50.826;4.380;2023-09-19T05:25:37;14.40;99.90
10788;DHT22;5446;50.826;4.380;2023-09-19T05:28:08;14.40;99.90
10788;DHT22;5446;50.826;4.380;2023-09-19T05:30:35;14.40;99.90
10788;DHT22;5446;50.826;4.380;2023-09-19T05:33:02;14.40;99.90
10788;DHT22;5446;50.826;4.380;2023-09-19T05:35:30;14.40;99.90
10788;DHT22;5446;50.826;4.380;2023-09-19T05:37:57;14.40;99.90
10788;DHT22;5446;50.826;4.380;2023-09-19T05:40:24;14.50;99.90
10788;DHT22;5446;50.826;4.380;2023-09-19T05:42:49;14.50;99.90
10788;DHT22;5446;50.826;4.380;2023-09-19T05:45:16;14.60;99.90
10788;DHT22;5446;50.826;4.380;2023-09-19T05:47:51;14.70;99.90
10788;DHT22;5446;50.826;4.380;2023-09-19T05:50:21;14.70;99.90
10788;DHT22;5446;50.826;4.380;2023-09-19T05:52:54;14.70;99.90
10788;DHT22;5446;50.826;4.380;2023-09-19T05:55:21;14.60;99.90
10788;DHT22;5446;50.826;4.380;2023-09-19T05:57:53;14.70;99.90
10788;DHT22;5446;50.826;4.380;2023-09-19T06:00:20;14.70;99.90
10788;DHT22;5446;50.826;4.380;2023-09-19T06:02:53;14.60;99.90
10788;DHT22;5446;50.826;4.380;2023-09-19T06:05:19;14.70;99.90
10788;DHT22;5446;50.826;4.380;2023-09-19T06:07:45;14.70;99.90
10788;DHT22;5446;50.826;4.380;2023-09-19T06:10:12;14.70;99.90
10788;DHT22;5446;50.826;4.380;2023-09-19T06:12:42;14.70;99.90
10788;DHT22;5446;50.826;4.380;2023-09-19T06:15:13;14.70;99.90
10788;DHT22;5446;50.826;4.380;2023-09-19T06:17:53;14.70;99.90
10788;DHT22;5446;50.826;4.380;2023-09-19T06:20:23;14.70;99.90
10788;DHT22;5446;50.826;4.380;2023-09-19T06:22:49;14.80;99.90
10788;DHT22;5446;50.826;4.380;2023-09-19T06:25:16;14.80;99.90
10788;DHT22;5446;50.826;4.380;2023-09-19T06:27:48;14.80;99.90
10788;DHT22;5446;50.826;4.380;2023-09-19T06:30:14;14.80;99.90
10788;DHT22;5446;50.826;4.380;2023-09-19T06:32:41;14.80;99.90
10788;DHT22;5446;50.826;4.380;2023-09-19T06:35:13;14.80;99.90
10788;DHT22;5446;50.826;4.380;2023-09-19T06:37:40;14.90;99.90
10788;DHT22;5446;50.826;4.380;2023-09-19T06:40:09;14.90;99.90
10788;DHT22;5446;50.826;4.380;2023-09-19T06:42:50;14.90;99.90
10788;DHT22;5446;50.826;4.380;2023-09-19T06:45:16;14.90;99.90
10788;DHT22;5446;50.826;4.380;2023-09-19T06:47:49;15.00;99.90
10788;DHT22;5446;50.826;4.380;2023-09-19T06:50:16;15.00;99.90
10788;DHT22;5446;50.826;4.380;2023-09-19T06:52:44;15.10;99.90
10788;DHT22;5446;50.826;4.380;2023-09-19T06:55:11;15.00;99.90
10788;DHT22;5446;50.826;4.380;2023-09-19T06:57:42;15.10;99.90
10788;DHT22;5446;50.826;4.380;2023-09-19T07:00:09;15.10;99.90
10788;DHT22;5446;50.826;4.380;2023-09-19T07:02:43;15.00;99.90
10788;DHT22;5446;50.826;4.380;2023-09-19T07:05:08;15.10;99.90
10788;DHT22;5446;50.826;4.380;2023-09-19T07:07:35;15.10;99.90
10788;DHT22;5446;50.826;4.380;2023-09-19T07:10:04;15.10;99.90
10788;DHT22;5446;50.826;4.380;2023-09-19T07:12:36;15.20;99.90
10788;DHT22;5446;50.826;4.380;2023-09-19T07:15:02;15.20;99.90
10788;DHT22;5446;50.826;4.380;2023-09-19T07:17:28;15.20;99.90
10788;DHT22;5446;50.826;4.380;2023-09-19T07:19:55;15.20;99.90
10788;DHT22;5446;50.826;4.380;2023-09-19T07:22:21;15.20;99.90
10788;DHT22;5446;50.826;4.380;2023-09-19T07:24:46;15.30;99.90
10788;DHT22;5446;50.826;4.380;2023-09-19T07:27:14;15.30;99.90
10788;DHT22;5446;50.826;4.380;2023-09-19T07:29:40;15.30;99.90
10788;DHT22;5446;50.826;4.380;2023-09-19T07:32:05;15.40;99.90
10788;DHT22;5446;50.826;4.380;2023-09-19T07:34:32;15.50;99.90
10788;DHT22;5446;50.826;4.380;2023-09-19T07:36:57;15.50;99.90
10788;DHT22;5446;50.826;4.380;2023-09-19T07:39:23;15.50;99.90
10788;DHT22;5446;50.826;4.380;2023-09-19T07:41:49;15.50;99.90
10788;DHT22;5446;50.826;4.380;2023-09-19T07:44:15;15.60;99.90
10788;DHT22;5446;50.826;4.380;2023-09-19T07:46:41;15.70;99.90
10788;DHT22;5446;50.826;4.380;2023-09-19T07:49:06;15.70;99.90
10788;DHT22;5446;50.826;4.380;2023-09-19T07:51:33;15.70;99.90
10788;DHT22;5446;50.826;4.380;2023-09-19T07:53:59;15.70;99.90
10788;DHT22;5446;50.826;4.380;2023-09-19T07:56:25;15.70;99.90
10788;DHT22;5446;50.826;4.380;2023-09-19T07:58:51;15.70;99.90
10788;DHT22;5446;50.826;4.380;2023-09-19T08:01:17;15.90;99.90
10788;DHT22;5446;50.826;4.380;2023-09-19T08:03:43;15.90;99.90
10788;DHT22;5446;50.826;4.380;2023-09-19T08:06:09;15.90;99.90
10788;DHT22;5446;50.826;4.380;2023-09-19T08:08:36;15.90;99.90
10788;DHT22;5446;50.826;4.380;2023-09-19T08:11:03;15.90;99.90
10788;DHT22;5446;50.826;4.380;2023-09-19T08:13:39;15.90;99.90
10788;DHT22;5446;50.826;4.380;2023-09-19T08:16:15;15.90;99.90
10788;DHT22;5446;50.826;4.380;2023-09-19T08:18:41;16.00;99.90
10788;DHT22;5446;50.826;4.380;2023-09-19T08:21:07;16.00;99.90
10788;DHT22;5446;50.826;4.380;2023-09-19T08:23:37;16.10;99.90
10788;DHT22;5446;50.826;4.380;2023-09-19T08:26:04;16.20;99.90
10788;DHT22;5446;50.826;4.380;2023-09-19T08:28:32;16.20;99.90
10788;DHT22;5446;50.826;4.380;2023-09-19T08:31:03;16.20;99.90
10788;DHT22;5446;50.826;4.380;2023-09-19T08:33:34;16.30;99.90
10788;DHT22;5446;50.826;4.380;2023-09-19T08:36:01;16.30;99.90
10788;DHT22;5446;50.826;4.380;2023-09-19T08:38:31;16.40;99.90
10788;DHT22;5446;50.826;4.380;2023-09-19T08:40:59;16.50;99.90
10788;DHT22;5446;50.826;4.380;2023-09-19T08:43:26;16.60;99.90
10788;DHT22;5446;50.826;4.380;2023-09-19T08:46:15;16.70;99.90
10788;DHT22;5446;50.826;4.380;2023-09-19T08:48:48;16.70;99.90
10788;DHT22;5446;50.826;4.380;2023-09-19T08:51:27;16.80;99.90
10788;DHT22;5446;50.826;4.380;2023-09-19T08:54:09;16.90;99.90
10788;DHT22;5446;50.826;4.380;2023-09-19T08:56:39;16.90;99.90
10788;DHT22;5446;50.826;4.380;2023-09-19T08:59:07;16.90;99.90
10788;DHT22;5446;50.826;4.380;2023-09-19T09:01:34;17.00;99.90
10788;DHT22;5446;50.826;4.380;2023-09-19T09:04:02;17.10;99.90
10788;DHT22;5446;50.826;4.380;2023-09-19T09:06:29;17.20;99.90
10788;DHT22;5446;50.826;4.380;2023-09-19T09:08:55;17.20;99.90
10788;DHT22;5446;50.826;4.380;2023-09-19T09:11:22;17.30;99.90
10788;DHT22;5446;50.826;4.380;2023-09-19T09:13:50;17.40;99.90
10788;DHT22;5446;50.826;4.380;2023-09-19T09:16:16;17.60;99.90
10788;DHT22;5446;50.826;4.380;2023-09-19T09:18:47;17.60;99.90
10788;DHT22;5446;50.826;4.380;2023-09-19T09:21:20;17.80;99.90
10788;DHT22;5446;50.826;4.380;2023-09-19T09:23:48;17.70;99.90
10788;DHT22;5446;50.826;4.380;2023-09-19T09:26:15;17.70;99.90
10788;DHT22;5446;50.826;4.380;2023-09-19T09:28:46;17.80;99.90
10788;DHT22;5446;50.826;4.380;2023-09-19T09:31:23;17.90;99.90
10788;DHT22;5446;50.826;4.380;2023-09-19T09:33:54;17.90;99.90
10788;DHT22;5446;50.826;4.380;2023-09-19T09:36:40;17.80;99.90
10788;DHT22;5446;50.826;4.380;2023-09-19T09:39:07;17.80;99.90
10788;DHT22;5446;50.826;4.380;2023-09-19T09:41:50;17.90;99.90
10788;DHT22;5446;50.826;4.380;2023-09-19T09:44:17;17.90;99.90
10788;DHT22;5446;50.826;4.380;2023-09-19T09:46:46;18.00;99.90
10788;DHT22;5446;50.826;4.380;2023-09-19T09:49:26;17.90;99.90
10788;DHT22;5446;50.826;4.380;2023-09-19T09:52:06;18.00;99.90
10788;DHT22;5446;50.826;4.380;2023-09-19T09:54:34;18.00;99.90
10788;DHT22;5446;50.826;4.380;2023-09-19T09:57:08;18.00;99.90
10788;DHT22;5446;50.826;4.380;2023-09-19T09:59:56;18.00;99.90
10788;DHT22;5446;50.826;4.380;2023-09-19T10:02:41;18.00;99.90
10788;DHT22;5446;50.826;4.380;2023-09-19T10:05:12;18.00;99.90
10788;DHT22;5446;50.826;4.380;2023-09-19T10:07:54;18.00;99.90
10788;DHT22;5446;50.826;4.380;2023-09-19T10:13:16;18.00;99.90
10788;DHT22;5446;50.826;4.380;2023-09-19T10:15:51;18.00;99.90
10788;DHT22;5446;50.826;4.380;2023-09-19T10:18:25;18.00;99.90
10788;DHT22;5446;50.826;4.380;2023-09-19T10:20:52;18.00;99.90
10788;DHT22;5446;50.826;4.380;2023-09-19T10:23:19;18.10;99.90
10788;DHT22;5446;50.826;4.380;2023-09-19T10:25:49;18.00;99.90
10788;DHT22;5446;50.826;4.380;2023-09-19T10:28:17;18.10;99.90
10788;DHT22;5446;50.826;4.380;2023-09-19T10:30:49;18.10;99.90
10788;DHT22;5446;50.826;4.380;2023-09-19T10:33:25;18.10;99.90
10788;DHT22;5446;50.826;4.380;2023-09-19T10:35:51;18.30;99.90
10788;DHT22;5446;50.826;4.380;2023-09-19T10:38:19;18.30;99.90
10788;DHT22;5446;50.826;4.380;2023-09-19T10:40:51;18.30;99.90
10788;DHT22;5446;50.826;4.380;2023-09-19T10:43:18;18.30;99.90
10788;DHT22;5446;50.826;4.380;2023-09-19T10:45:45;18.30;99.90
10788;DHT22;5446;50.826;4.380;2023-09-19T10:48:16;18.40;99.90
10788;DHT22;5446;50.826;4.380;2023-09-19T10:51:02;18.40;99.90
10788;DHT22;5446;50.826;4.380;2023-09-19T10:54:05;18.40;99.90
10788;DHT22;5446;50.826;4.380;2023-09-19T10:56:38;18.50;99.90
10788;DHT22;5446;50.826;4.380;2023-09-19T10:59:09;18.60;99.90
10788;DHT22;5446;50.826;4.380;2023-09-19T11:07:10;18.60;99.90
10788;DHT22;5446;50.826;4.380;2023-09-19T11:09:50;18.60;99.90
10788;DHT22;5446;50.826;4.380;2023-09-19T11:15:01;18.80;99.90
10788;DHT22;5446;50.826;4.380;2023-09-19T11:17:43;18.90;99.90
10788;DHT22;5446;50.826;4.380;2023-09-19T11:30:39;19.40;99.90
10788;DHT22;5446;50.826;4.380;2023-09-19T11:33:19;19.60;99.90
10788;DHT22;5446;50.826;4.380;2023-09-19T11:36:09;19.60;99.90
10788;DHT22;5446;50.826;4.380;2023-09-19T11:49:18;19.80;99.90
10788;DHT22;5446;50.826;4.380;2023-09-19T11:51:51;19.90;99.90
10788;DHT22;5446;50.826;4.380;2023-09-19T11:54:17;19.90;99.90
10788;DHT22;5446;50.826;4.380;2023-09-19T11:56:51;19.80;99.90
10788;DHT22;5446;50.826;4.380;2023-09-19T11:59:31;19.70;99.90
10788;DHT22;5446;50.826;4.380;2023-09-19T12:02:01;19.70;99.90
10788;DHT22;5446;50.826;4.380;2023-09-19T12:04:40;19.90;99.90
10788;DHT22;5446;50.826;4.380;2023-09-19T12:07:11;20.00;99.90
10788;DHT22;5446;50.826;4.380;2023-09-19T12:10:02;20.00;99.90
10788;DHT22;5446;50.826;4.380;2023-09-19T12:12:29;19.90;99.90
10788;DHT22;5446;50.826;4.380;2023-09-19T12:14:56;19.70;99.90
10788;DHT22;5446;50.826;4.380;2023-09-19T12:17:46;19.70;99.90
10788;DHT22;5446;50.826;4.380;2023-09-19T12:20:12;19.80;99.90
10788;DHT22;5446;50.826;4.380;2023-09-19T12:22:43;19.80;99.90
10788;DHT22;5446;50.826;4.380;2023-09-19T12:25:09;19.70;99.90
10788;DHT22;5446;50.826;4.380;2023-09-19T12:27:47;19.60;99.90
10788;DHT22;5446;50.826;4.380;2023-09-19T12:30:16;19.70;99.90
10788;DHT22;5446;50.826;4.380;2023-09-19T12:32:43;19.70;99.90
10788;DHT22;5446;50.826;4.380;2023-09-19T12:35:26;19.90;99.90
10788;DHT22;5446;50.826;4.380;2023-09-19T12:37:53;19.90;99.90
10788;DHT22;5446;50.826;4.380;2023-09-19T12:40:21;19.90;99.90
10788;DHT22;5446;50.826;4.380;2023-09-19T12:42:49;20.00;99.90
10788;DHT22;5446;50.826;4.380;2023-09-19T12:45:16;20.10;99.90
10788;DHT22;5446;50.826;4.380;2023-09-19T12:53:37;20.10;99.90
10788;DHT22;5446;50.826;4.380;2023-09-19T12:56:08;20.10;99.90
10788;DHT22;5446;50.826;4.380;2023-09-19T12:58:52;20.00;99.90
10788;DHT22;5446;50.826;4.380;2023-09-19T13:01:19;20.10;99.90
10788;DHT22;5446;50.826;4.380;2023-09-19T13:03:45;20.00;99.90
10788;DHT22;5446;50.826;4.380;2023-09-19T13:06:11;20.10;99.90
10788;DHT22;5446;50.826;4.380;2023-09-19T13:08:39;20.00;99.90
10788;DHT22;5446;50.826;4.380;2023-09-19T13:11:17;20.10;99.90
10788;DHT22;5446;50.826;4.380;2023-09-19T13:14:23;20.20;99.90
10788;DHT22;5446;50.826;4.380;2023-09-19T13:19:36;20.00;99.90
10788;DHT22;5446;50.826;4.380;2023-09-19T13:22:01;20.20;99.90
10788;DHT22;5446;50.826;4.380;2023-09-19T13:24:29;20.20;99.90
10788;DHT22;5446;50.826;4.380;2023-09-19T13:26:56;20.30;99.90
10788;DHT22;5446;50.826;4.380;2023-09-19T13:29:22;20.40;99.90
10788;DHT22;5446;50.826;4.380;2023-09-19T13:31:52;20.40;99.90
10788;DHT22;5446;50.826;4.380;2023-09-19T13:34:21;20.40;99.90
10788;DHT22;5446;50.826;4.380;2023-09-19T13:36:47;20.60;99.90
10788;DHT22;5446;50.826;4.380;2023-09-19T13:39:16;20.60;99.90
10788;DHT22;5446;50.826;4.380;2023-09-19T13:41:48;20.60;99.90
10788;DHT22;5446;50.826;4.380;2023-09-19T13:44:15;20.50;99.90
10788;DHT22;5446;50.826;4.380;2023-09-19T13:46:42;20.40;99.90
10788;DHT22;5446;50.826;4.380;2023-09-19T13:49:11;20.40;99.90
10788;DHT22;5446;50.826;4.380;2023-09-19T13:51:37;20.50;99.90
10788;DHT22;5446;50.826;4.380;2023-09-19T13:54:03;20.60;99.90
10788;DHT22;5446;50.826;4.380;2023-09-19T13:56:28;20.40;99.90
10788;DHT22;5446;50.826;4.380;2023-09-19T13:58:56;20.20;99.90
10788;DHT22;5446;50.826;4.380;2023-09-19T14:01:22;20.20;99.90
10788;DHT22;5446;50.826;4.380;2023-09-19T14:03:48;20.30;99.90
10788;DHT22;5446;50.826;4.380;2023-09-19T14:06:18;20.30;99.90
10788;DHT22;5446;50.826;4.380;2023-09-19T14:08:44;20.30;99.90
10788;DHT22;5446;50.826;4.380;2023-09-19T14:11:13;20.30;99.90
10788;DHT22;5446;50.826;4.380;2023-09-19T14:13:40;20.20;99.90
10788;DHT22;5446;50.826;4.380;2023-09-19T14:16:08;20.10;99.90
10788;DHT22;5446;50.826;4.380;2023-09-19T14:18:35;20.20;99.90
10788;DHT22;5446;50.826;4.380;2023-09-19T14:21:06;20.40;99.90
10788;DHT22;5446;50.826;4.380;2023-09-19T14:23:35;20.40;99.90
10788;DHT22;5446;50.826;4.380;2023-09-19T14:26:01;20.50;99.90
10788;DHT22;5446;50.826;4.380;2023-09-19T14:28:27;20.70;99.90
10788;DHT22;5446;50.826;4.380;2023-09-19T14:30:55;20.70;99.90
10788;DHT22;5446;50.826;4.380;2023-09-19T14:33:21;20.80;99.90
10788;DHT22;5446;50.826;4.380;2023-09-19T14:35:46;20.60;99.90
10788;DHT22;5446;50.826;4.380;2023-09-19T14:38:12;20.50;99.90
10788;DHT22;5446;50.826;4.380;2023-09-19T14:40:38;20.40;99.90
10788;DHT22;5446;50.826;4.380;2023-09-19T14:43:05;20.50;99.90
10788;DHT22;5446;50.826;4.380;2023-09-19T14:45:30;20.60;99.90
10788;DHT22;5446;50.826;4.380;2023-09-19T14:47:56;20.70;99.90
10788;DHT22;5446;50.826;4.380;2023-09-19T14:50:22;20.70;99.90
10788;DHT22;5446;50.826;4.380;2023-09-19T14:52:48;20.70;99.90
10788;DHT22;5446;50.826;4.380;2023-09-19T14:55:18;20.50;99.90
10788;DHT22;5446;50.826;4.380;2023-09-19T14:57:49;20.50;99.90
10788;DHT22;5446;50.826;4.380;2023-09-19T15:00:16;20.50;99.90
10788;DHT22;5446;50.826;4.380;2023-09-19T15:02:42;20.60;99.90
10788;DHT22;5446;50.826;4.380;2023-09-19T15:05:10;20.50;99.90
10788;DHT22;5446;50.826;4.380;2023-09-19T15:07:36;20.50;99.90
10788;DHT22;5446;50.826;4.380;2023-09-19T15:10:04;20.60;99.90
10788;DHT22;5446;50.826;4.380;2023-09-19T15:12:33;20.60;99.90
10788;DHT22;5446;50.826;4.380;2023-09-19T15:14:58;20.50;99.90
10788;DHT22;5446;50.826;4.380;2023-09-19T15:17:24;20.40;99.90
10788;DHT22;5446;50.826;4.380;2023-09-19T15:19:51;20.40;99.90
10788;DHT22;5446;50.826;4.380;2023-09-19T15:22:17;20.20;99.90
10788;DHT22;5446;50.826;4.380;2023-09-19T15:24:42;20.20;99.90
10788;DHT22;5446;50.826;4.380;2023-09-19T15:27:08;20.10;99.90
10788;DHT22;5446;50.826;4.380;2023-09-19T15:29:34;20.10;99.90
10788;DHT22;5446;50.826;4.380;2023-09-19T15:31:59;20.10;99.90
10788;DHT22;5446;50.826;4.380;2023-09-19T15:34:28;19.90;99.90
10788;DHT22;5446;50.826;4.380;2023-09-19T15:36:54;19.90;99.90
10788;DHT22;5446;50.826;4.380;2023-09-19T15:39:20;19.70;99.90
10788;DHT22;5446;50.826;4.380;2023-09-19T15:41:48;19.70;99.90
10788;DHT22;5446;50.826;4.380;2023-09-19T15:44:18;19.70;99.90
10788;DHT22;5446;50.826;4.380;2023-09-19T15:46:45;19.70;99.90
10788;DHT22;5446;50.826;4.380;2023-09-19T15:49:11;19.90;99.90
10788;DHT22;5446;50.826;4.380;2023-09-19T15:51:37;19.90;99.90
10788;DHT22;5446;50.826;4.380;2023-09-19T15:54:10;19.80;99.90
10788;DHT22;5446;50.826;4.380;2023-09-19T15:56:36;19.70;99.90
10788;DHT22;5446;50.826;4.380;2023-09-19T15:59:02;19.70;99.90
10788;DHT22;5446;50.826;4.380;2023-09-19T16:01:28;19.70;99.90
10788;DHT22;5446;50.826;4.380;2023-09-19T16:03:54;19.70;99.90
10788;DHT22;5446;50.826;4.380;2023-09-19T16:06:30;19.70;99.90
10788;DHT22;5446;50.826;4.380;2023-09-19T16:08:59;19.80;99.90
10788;DHT22;5446;50.826;4.380;2023-09-19T16:11:29;19.70;99.90
10788;DHT22;5446;50.826;4.380;2023-09-19T16:13:56;19.60;99.90
10788;DHT22;5446;50.826;4.380;2023-09-19T16:16:22;19.60;99.90
10788;DHT22;5446;50.826;4.380;2023-09-19T16:19:02;19.60;99.90
10788;DHT22;5446;50.826;4.380;2023-09-19T16:21:29;19.50;99.90
10788;DHT22;5446;50.826;4.380;2023-09-19T16:23:56;19.50;99.90
10788;DHT22;5446;50.826;4.380;2023-09-19T16:26:24;19.50;99.90
10788;DHT22;5446;50.826;4.380;2023-09-19T16:28:52;19.50;99.90
10788;DHT22;5446;50.826;4.380;2023-09-19T16:31:18;19.40;99.90
10788;DHT22;5446;50.826;4.380;2023-09-19T16:33:45;19.40;99.90
10788;DHT22;5446;50.826;4.380;2023-09-19T16:36:16;19.30;99.90
10788;DHT22;5446;50.826;4.380;2023-09-19T16:38:44;19.30;99.90
10788;DHT22;5446;50.826;4.380;2023-09-19T16:41:10;19.30;99.90
10788;DHT22;5446;50.826;4.380;2023-09-19T16:43:40;19.20;99.90
10788;DHT22;5446;50.826;4.380;2023-09-19T16:46:08;19.20;99.90
10788;DHT22;5446;50.826;4.380;2023-09-19T16:55:18;19.20;99.90
10788;DHT22;5446;50.826;4.380;2023-09-19T16:57:46;19.30;99.90
10788;DHT22;5446;50.826;4.380;2023-09-19T17:00:13;19.30;99.90